createdAt,value
2023-01-12T00:02:23.291Z,6.40
2023-01-12T00:04:51.757Z,6.30
2023-01-12T00:07:21.849Z,6.20
2023-01-12T00:09:50.081Z,6.10
2023-01-12T00:12:18.545Z,6.10
2023-01-12T00:14:46.930Z,6.00
2023-01-12T00:17:17.382Z,5.90
2023-01-12T00:19:45.674Z,5.80
2023-01-12T00:22:17.870Z,5.70
2023-01-12T00:24:49.919Z,5.70
2023-01-12T00:27:20.470Z,5.60
2023-01-12T00:29:49.248Z,5.60
2023-01-12T00:32:19.226Z,5.50
2023-01-12T00:34:47.587Z,5.50
2023-01-12T00:37:16.074Z,5.40
2023-01-12T00:40:00.886Z,5.30
2023-01-12T00:42:49.921Z,5.20
2023-01-12T00:45:24.841Z,5.10
2023-01-12T00:47:53.474Z,5.00
2023-01-12T00:50:21.836Z,5.00
2023-01-12T00:52:50.230Z,4.90
2023-01-12T00:55:18.746Z,4.80
2023-01-12T00:57:48.518Z,4.80
2023-01-12T01:00:18.394Z,4.70
2023-01-12T01:02:46.821Z,4.70
2023-01-12T01:05:15.202Z,4.70
2023-01-12T01:07:43.442Z,4.70
2023-01-12T01:10:12.870Z,4.60
2023-01-12T01:12:41.270Z,4.60
2023-01-12T01:15:12.387Z,4.60
2023-01-12T01:17:40.801Z,4.60
2023-01-12T01:20:10.143Z,4.60
2023-01-12T01:22:38.510Z,4.60
2023-01-12T01:25:07.620Z,4.60
2023-01-12T01:27:36.752Z,4.60
2023-01-12T01:30:05.794Z,4.60
2023-01-12T01:32:35.388Z,4.60
2023-01-12T01:35:03.795Z,4.60
2023-01-12T01:37:32.814Z,4.60
2023-01-12T01:40:01.014Z,4.60
2023-01-12T01:42:29.496Z,4.60
2023-01-12T01:45:00.275Z,4.50
2023-01-12T01:47:34.156Z,4.50
2023-01-12T01:50:07.297Z,4.50
2023-01-12T01:52:38.738Z,4.60
2023-01-12T01:55:11.477Z,4.60
2023-01-12T01:57:47.456Z,4.60
2023-01-12T02:00:17.284Z,4.50
2023-01-12T02:02:47.727Z,4.50
2023-01-12T02:05:20.364Z,4.50
2023-01-12T02:07:50.309Z,4.40
2023-01-12T02:10:19.713Z,4.40
2023-01-12T02:13:05.988Z,4.30
2023-01-12T02:15:58.242Z,4.30
2023-01-12T02:18:34.656Z,4.20
2023-01-12T02:21:34.181Z,4.30
2023-01-12T02:24:38.694Z,4.20
2023-01-12T02:27:32.899Z,4.20
2023-01-12T02:30:42.281Z,4.10
2023-01-12T02:33:24.371Z,4.10
2023-01-12T02:36:00.030Z,4.00
2023-01-12T02:38:36.247Z,4.00
2023-01-12T02:41:14.633Z,3.90
2023-01-12T02:43:43.175Z,3.90
2023-01-12T02:46:17.604Z,3.80
2023-01-12T02:48:53.054Z,3.70
2023-01-12T02:51:28.467Z,3.70
2023-01-12T02:54:02.283Z,3.60
2023-01-12T02:56:35.402Z,3.60
2023-01-12T02:59:06.992Z,3.50
2023-01-12T03:01:35.606Z,3.50
2023-01-12T03:04:07.920Z,3.50
2023-01-12T03:06:46.670Z,3.40
2023-01-12T03:09:16.954Z,3.30
2023-01-12T03:11:48.433Z,3.20
2023-01-12T03:14:18.383Z,3.20
2023-01-12T03:16:47.186Z,3.30
2023-01-12T03:19:22.371Z,3.30
2023-01-12T03:21:55.086Z,3.30
2023-01-12T03:24:27.311Z,3.30
2023-01-12T03:27:03.479Z,3.30
2023-01-12T03:29:36.697Z,3.30
2023-01-12T03:32:06.357Z,3.30
2023-01-12T03:34:37.387Z,3.30
2023-01-12T03:37:12.729Z,3.30
2023-01-12T03:39:50.027Z,3.40
2023-01-12T03:42:24.981Z,3.40
2023-01-12T03:45:03.716Z,3.40
2023-01-12T03:47:33.900Z,3.40
2023-01-12T03:50:08.074Z,3.30
2023-01-12T03:52:38.673Z,3.30
2023-01-12T03:55:09.826Z,3.30
2023-01-12T03:57:39.620Z,3.30
2023-01-12T04:00:11.106Z,3.30
2023-01-12T04:02:39.468Z,3.30
2023-01-12T04:05:11.307Z,3.20
2023-01-12T04:07:39.995Z,3.20
2023-01-12T04:10:09.786Z,3.20
2023-01-12T04:12:37.130Z,3.10
2023-01-12T04:15:06.282Z,3.10
2023-01-12T04:17:34.706Z,3.00
2023-01-12T04:20:04.539Z,3.00
2023-01-12T04:22:45.389Z,2.90
2023-01-12T04:25:16.139Z,2.90
2023-01-12T04:27:47.932Z,2.90
2023-01-12T04:30:18.812Z,2.90
2023-01-12T04:32:47.757Z,2.90
2023-01-12T04:35:17.529Z,3.00
2023-01-12T04:37:47.786Z,2.90
2023-01-12T04:40:17.262Z,2.90
2023-01-12T04:43:09.998Z,2.90
2023-01-12T04:45:41.708Z,2.90
2023-01-12T04:48:11.363Z,2.90
2023-01-12T04:50:40.473Z,2.80
2023-01-12T04:53:12.064Z,2.80
2023-01-12T04:55:42.805Z,2.90
2023-01-12T04:58:11.394Z,2.80
2023-01-12T05:00:39.633Z,2.80
2023-01-12T05:03:08.290Z,2.80
2023-01-12T05:05:37.751Z,2.80
2023-01-12T05:08:25.132Z,2.90
2023-01-12T05:10:56.520Z,2.90
2023-01-12T05:13:25.490Z,2.90
2023-01-12T05:15:53.799Z,2.90
2023-01-12T05:18:22.194Z,2.90
2023-01-12T05:20:50.690Z,2.90
2023-01-12T05:23:19.023Z,2.90
2023-01-12T05:25:47.248Z,2.90
2023-01-12T05:28:17.068Z,2.90
2023-01-12T05:30:45.400Z,3.00
2023-01-12T05:33:16.593Z,3.00
2023-01-12T05:35:44.958Z,3.00
2023-01-12T05:38:13.451Z,3.00
2023-01-12T05:40:41.829Z,3.00
2023-01-12T05:43:30.887Z,3.10
2023-01-12T05:46:04.464Z,3.10
2023-01-12T05:48:33.621Z,3.20
2023-01-12T05:51:02.824Z,3.30
2023-01-12T05:53:31.456Z,3.40
2023-01-12T05:56:00.310Z,3.40
2023-01-12T05:58:28.605Z,3.50
2023-01-12T06:00:56.832Z,3.50
2023-01-12T06:03:27.886Z,3.60
2023-01-12T06:05:58.475Z,3.70
2023-01-12T06:08:27.014Z,3.60
2023-01-12T06:10:55.198Z,3.60
2023-01-12T06:13:40.949Z,3.60
2023-01-12T06:16:09.727Z,3.60
2023-01-12T06:18:40.921Z,3.60
2023-01-12T06:21:10.370Z,3.50
2023-01-12T06:23:38.745Z,3.50
2023-01-12T06:26:10.592Z,3.50
2023-01-12T06:28:40.773Z,3.40
2023-01-12T06:31:11.236Z,3.40
2023-01-12T06:33:41.155Z,3.30
2023-01-12T06:36:10.517Z,3.40
2023-01-12T06:38:38.920Z,3.40
2023-01-12T06:41:29.898Z,3.30
2023-01-12T06:43:58.847Z,3.30
2023-01-12T06:46:28.360Z,3.30
2023-01-12T06:48:59.008Z,3.40
2023-01-12T06:51:27.711Z,3.40
2023-01-12T06:53:56.186Z,3.40
2023-01-12T06:56:24.505Z,3.40
2023-01-12T06:58:52.739Z,3.50
2023-01-12T07:01:21.135Z,3.50
2023-01-12T07:03:49.476Z,3.50
2023-01-12T07:06:19.193Z,3.50
2023-01-12T07:08:47.541Z,3.60
2023-01-12T07:11:16.980Z,3.70
2023-01-12T07:13:45.172Z,3.80
2023-01-12T07:16:13.716Z,3.70
2023-01-12T07:18:42.068Z,3.70
2023-01-12T07:21:13.557Z,3.70
2023-01-12T07:23:43.731Z,3.70
2023-01-12T07:26:12.885Z,3.80
2023-01-12T07:28:41.210Z,3.90
2023-01-12T07:31:09.932Z,3.90
2023-01-12T07:33:38.654Z,3.90
2023-01-12T07:36:07.553Z,4.00
2023-01-12T07:38:35.819Z,4.00
2023-01-12T07:41:06.089Z,4.00
2023-01-12T07:43:34.771Z,4.10
2023-01-12T07:46:03.144Z,4.20
2023-01-12T07:48:33.269Z,4.20
2023-01-12T07:51:01.493Z,4.30
2023-01-12T07:53:29.745Z,4.40
2023-01-12T07:56:00.522Z,4.50
2023-01-12T07:58:31.523Z,4.60
2023-01-12T08:01:00.301Z,4.70
2023-01-12T08:03:28.762Z,4.90
2023-01-12T08:05:57.893Z,5.00
2023-01-12T08:08:26.062Z,5.10
2023-01-12T08:10:54.361Z,5.20
2023-01-12T08:13:25.667Z,5.20
2023-01-12T08:15:56.094Z,5.40
2023-01-12T08:18:28.462Z,5.60
2023-01-12T08:21:01.177Z,5.70
2023-01-12T08:23:32.808Z,5.70
2023-01-12T08:26:04.316Z,5.80
2023-01-12T08:28:36.882Z,5.90
2023-01-12T08:31:10.166Z,6.00
2023-01-12T08:33:38.680Z,6.00
2023-01-12T08:36:10.416Z,6.00
2023-01-12T08:38:39.686Z,6.00
2023-01-12T08:41:25.560Z,6.00
2023-01-12T08:44:03.070Z,5.90
2023-01-12T08:46:35.087Z,5.90
2023-01-12T08:49:04.140Z,6.00
2023-01-12T08:51:33.256Z,5.90
2023-01-12T08:54:02.469Z,5.90
2023-01-12T08:56:31.046Z,5.90
2023-01-12T08:58:59.383Z,5.90
2023-01-12T09:01:27.754Z,5.80
2023-01-12T09:03:59.399Z,5.90
2023-01-12T09:06:30.090Z,5.90
2023-01-12T09:08:59.836Z,5.90
2023-01-12T09:11:29.903Z,5.90
2023-01-12T09:13:58.839Z,6.00
2023-01-12T09:16:28.813Z,6.10
2023-01-12T09:18:58.715Z,6.10
2023-01-12T09:21:29.150Z,6.00
2023-01-12T09:23:58.021Z,6.10
2023-01-12T09:26:31.452Z,6.00
2023-01-12T09:29:00.932Z,6.10
2023-01-12T09:31:31.330Z,6.20
2023-01-12T09:34:01.588Z,6.20
2023-01-12T09:36:31.506Z,6.30
2023-01-12T09:39:01.481Z,6.20
2023-01-12T09:41:49.541Z,6.30
2023-01-12T09:44:38.383Z,6.40
2023-01-12T09:47:10.544Z,6.40
2023-01-12T09:49:43.036Z,6.50
2023-01-12T09:52:17.054Z,6.50
2023-01-12T09:54:48.976Z,6.60
2023-01-12T09:57:44.828Z,6.50
2023-01-12T10:00:15.023Z,6.50
2023-01-12T10:02:47.935Z,6.60
2023-01-12T10:05:38.553Z,6.60
2023-01-12T10:08:14.539Z,6.60
2023-01-12T10:10:48.926Z,6.70
2023-01-12T10:13:17.675Z,6.70
2023-01-12T10:15:51.928Z,6.70
2023-01-12T10:18:25.984Z,6.60
2023-01-12T10:20:56.530Z,6.60
2023-01-12T10:23:28.790Z,6.70
2023-01-12T10:26:03.466Z,6.70
2023-01-12T10:28:33.576Z,6.80
2023-01-12T10:31:02.552Z,6.90
2023-01-12T10:33:33.058Z,7.10
2023-01-12T10:36:05.506Z,7.00
2023-01-12T10:38:36.181Z,6.90
2023-01-12T10:41:23.276Z,6.90
2023-01-12T10:44:16.186Z,6.80
2023-01-12T10:46:44.716Z,6.80
2023-01-12T10:49:21.511Z,6.80
2023-01-12T10:51:54.792Z,6.80
2023-01-12T10:54:26.547Z,6.80
2023-01-12T10:56:56.412Z,6.70
2023-01-12T10:59:29.939Z,6.70
2023-01-12T11:02:17.571Z,6.70
2023-01-12T11:04:47.991Z,6.70
2023-01-12T11:07:21.909Z,6.80
2023-01-12T11:09:51.045Z,6.80
2023-01-12T11:12:29.440Z,6.80
2023-01-12T11:15:04.505Z,6.80
2023-01-12T11:17:54.859Z,6.80
2023-01-12T11:20:28.541Z,6.80
2023-01-12T11:23:03.105Z,6.80
2023-01-12T11:25:34.572Z,6.80
2023-01-12T11:28:08.569Z,6.80
2023-01-12T11:30:44.424Z,6.80
2023-01-12T11:33:17.866Z,6.80
2023-01-12T11:35:50.257Z,6.80
2023-01-12T11:38:24.239Z,6.80
2023-01-12T11:40:53.845Z,6.80
2023-01-12T11:43:51.158Z,6.80
2023-01-12T11:46:26.556Z,6.90
2023-01-12T11:49:08.409Z,6.90
2023-01-12T11:51:37.340Z,7.00
2023-01-12T11:54:09.052Z,7.00
2023-01-12T11:56:55.417Z,7.00
2023-01-12T11:59:28.983Z,7.10
2023-01-12T12:02:07.639Z,7.10
2023-01-12T12:04:51.615Z,7.10
2023-01-12T12:07:33.956Z,7.10
2023-01-12T12:10:16.560Z,7.20
2023-01-12T12:13:01.781Z,7.30
2023-01-12T12:15:37.458Z,7.20
2023-01-12T12:18:19.121Z,7.20
2023-01-12T12:21:05.043Z,7.20
2023-01-12T12:23:41.858Z,7.30
2023-01-12T12:26:21.345Z,7.40
2023-01-12T12:29:06.381Z,7.50
2023-01-12T12:31:58.633Z,7.60
2023-01-12T12:34:55.470Z,7.70
2023-01-12T12:37:35.546Z,7.70
2023-01-12T12:40:11.234Z,7.80
2023-01-12T12:43:13.762Z,7.80
2023-01-12T12:45:48.292Z,7.80
2023-01-12T12:48:20.028Z,7.60
2023-01-12T12:50:53.806Z,7.50
2023-01-12T12:53:27.455Z,7.50
2023-01-12T12:55:59.454Z,7.50
2023-01-12T12:58:40.056Z,7.40
2023-01-12T13:01:44.811Z,7.50
2023-01-12T13:04:14.621Z,7.60
2023-01-12T13:06:48.997Z,7.60
2023-01-12T13:09:37.310Z,7.70
2023-01-12T13:12:33.521Z,7.70
2023-01-12T13:15:25.613Z,7.80
2023-01-12T13:17:55.766Z,7.80
2023-01-12T13:21:02.939Z,7.90
2023-01-12T13:23:46.812Z,7.90
2023-01-12T13:26:40.264Z,8.00
2023-01-12T13:29:49.919Z,7.80
2023-01-12T13:32:52.019Z,7.80
2023-01-12T13:35:30.215Z,7.80
2023-01-12T13:38:06.264Z,7.80
2023-01-12T13:40:34.622Z,7.90
2023-01-12T13:43:19.681Z,7.90
2023-01-12T13:45:52.167Z,7.90
2023-01-12T13:48:22.796Z,8.00
2023-01-12T13:50:54.886Z,8.00
2023-01-12T13:53:28.496Z,8.00
2023-01-12T13:55:59.223Z,8.00
2023-01-12T13:58:27.907Z,8.00
2023-01-12T14:00:59.006Z,8.10
2023-01-12T14:03:49.720Z,8.30
2023-01-12T14:06:28.649Z,8.30
2023-01-12T14:09:19.534Z,8.40
2023-01-12T14:12:15.399Z,8.50
2023-01-12T14:15:25.912Z,8.50
2023-01-12T14:18:03.827Z,8.50
2023-01-12T14:20:42.881Z,8.50
2023-01-12T14:23:17.545Z,8.40
2023-01-12T14:25:46.782Z,8.40
2023-01-12T14:28:20.106Z,8.40
2023-01-12T14:30:51.760Z,8.30
2023-01-12T14:33:22.252Z,8.20
2023-01-12T14:35:56.029Z,8.10
2023-01-12T14:38:27.252Z,8.00
2023-01-12T14:41:00.388Z,8.10
2023-01-12T14:43:49.150Z,8.10
2023-01-12T14:46:26.944Z,8.10
2023-01-12T14:49:03.901Z,8.10
2023-01-12T14:51:36.122Z,8.10
2023-01-12T14:54:19.095Z,8.00
2023-01-12T14:56:56.363Z,8.00
2023-01-12T14:59:28.895Z,8.00
2023-01-12T15:02:36.212Z,8.00
2023-01-12T15:05:06.892Z,8.00
2023-01-12T15:07:38.786Z,7.90
2023-01-12T15:10:29.759Z,7.80
2023-01-12T15:12:59.068Z,7.80
2023-01-12T15:15:49.190Z,7.70
2023-01-12T15:18:35.172Z,7.70
2023-01-12T15:21:22.007Z,7.60
2023-01-12T15:24:09.572Z,7.60
2023-01-12T15:26:37.855Z,7.50
2023-01-12T15:29:06.258Z,7.50
2023-01-12T15:31:37.264Z,7.40
2023-01-12T15:34:07.033Z,7.40
2023-01-12T15:36:35.296Z,7.40
2023-01-12T15:39:05.193Z,7.40
2023-01-12T15:41:50.938Z,7.40
2023-01-12T15:44:21.703Z,7.40
2023-01-12T15:46:50.117Z,7.30
2023-01-12T15:49:18.880Z,7.30
2023-01-12T15:51:50.137Z,7.30
2023-01-12T15:54:21.676Z,7.30
2023-01-12T15:56:50.193Z,7.20
2023-01-12T15:59:18.471Z,7.20
2023-01-12T16:01:49.792Z,7.10
2023-01-12T16:07:08.609Z,7.20
2023-01-12T16:09:38.471Z,7.20
2023-01-12T16:12:07.731Z,7.20
2023-01-12T16:14:36.222Z,7.20
2023-01-12T16:17:04.666Z,7.10
2023-01-12T16:19:33.799Z,7.20
2023-01-12T16:22:02.303Z,7.10
2023-01-12T16:24:32.431Z,7.00
2023-01-12T16:27:04.815Z,6.90
2023-01-12T16:29:33.347Z,6.90
2023-01-12T16:32:01.671Z,6.90
2023-01-12T16:34:30.582Z,6.80
2023-01-12T16:37:00.630Z,6.80
2023-01-12T16:39:29.409Z,6.80
2023-01-12T16:42:03.398Z,6.80
2023-01-12T16:44:37.403Z,6.80
2023-01-12T16:47:05.897Z,6.80
2023-01-12T16:49:36.057Z,6.80
2023-01-12T16:52:05.832Z,6.80
2023-01-12T16:54:36.539Z,6.70
2023-01-12T16:57:04.987Z,6.70
2023-01-12T16:59:34.725Z,6.60
2023-01-12T17:02:07.750Z,6.50
2023-01-12T17:04:36.987Z,6.50
2023-01-12T17:07:06.364Z,6.40
2023-01-12T17:09:35.796Z,6.40
2023-01-12T17:12:04.559Z,6.40
2023-01-12T17:14:34.808Z,6.40
2023-01-12T17:17:05.785Z,6.40
2023-01-12T17:19:36.344Z,6.40
2023-01-12T17:22:05.002Z,6.40
2023-01-12T17:24:34.653Z,6.40
2023-01-12T17:27:03.491Z,6.30
2023-01-12T17:29:31.987Z,6.30
2023-01-12T17:32:06.673Z,6.30
2023-01-12T17:34:38.345Z,6.20
2023-01-12T17:37:09.032Z,6.20
2023-01-12T17:39:39.849Z,6.20
2023-01-12T17:42:25.893Z,6.20
2023-01-12T17:44:54.321Z,6.20
2023-01-12T17:47:24.787Z,6.20
2023-01-12T17:49:54.575Z,6.20
2023-01-12T17:52:23.017Z,6.20
2023-01-12T17:54:51.659Z,6.20
2023-01-12T17:57:20.063Z,6.10
2023-01-12T17:59:50.012Z,6.20
2023-01-12T18:02:18.654Z,6.10
2023-01-12T18:04:48.627Z,6.00
2023-01-12T18:07:17.015Z,6.00
2023-01-12T18:09:45.287Z,6.00
2023-01-12T18:12:16.006Z,6.00
2023-01-12T18:14:44.250Z,6.10
2023-01-12T18:17:12.817Z,6.10
2023-01-12T18:19:42.486Z,6.10
2023-01-12T18:22:14.098Z,6.20
2023-01-12T18:24:42.700Z,6.20
2023-01-12T18:27:11.129Z,6.20
2023-01-12T18:29:39.788Z,6.30
2023-01-12T18:32:08.122Z,6.30
2023-01-12T18:34:36.978Z,6.20
2023-01-12T18:37:05.418Z,6.20
2023-01-12T18:39:35.276Z,6.20
2023-01-12T18:42:20.715Z,6.20
2023-01-12T18:44:50.159Z,6.20
2023-01-12T18:47:36.003Z,6.10
2023-01-12T18:50:37.570Z,6.10
2023-01-12T18:53:23.927Z,6.00
2023-01-12T18:55:57.326Z,6.00
2023-01-12T18:58:29.175Z,6.00
2023-01-12T19:00:58.100Z,6.10
2023-01-12T19:03:26.434Z,6.00
2023-01-12T19:06:00.187Z,6.10
2023-01-12T19:08:46.964Z,6.00
2023-01-12T19:11:17.862Z,5.80
2023-01-12T19:14:03.220Z,5.80
2023-01-12T19:16:48.708Z,5.70
2023-01-12T19:19:18.461Z,5.80
2023-01-12T19:22:04.595Z,5.80
2023-01-12T19:24:50.095Z,5.80
2023-01-12T19:27:38.203Z,5.90
2023-01-12T19:30:08.144Z,5.90
2023-01-12T19:32:36.474Z,5.90
2023-01-12T19:35:10.909Z,5.90
2023-01-12T19:37:39.878Z,5.90
2023-01-12T19:40:17.512Z,6.00
2023-01-12T19:43:04.964Z,6.00
2023-01-12T19:45:33.391Z,6.00
2023-01-12T19:48:03.661Z,6.10
2023-01-12T19:50:31.980Z,6.00
2023-01-12T19:53:00.251Z,6.10
2023-01-12T19:55:28.658Z,6.10
2023-01-12T19:57:59.270Z,6.10
2023-01-12T20:00:28.289Z,6.00
2023-01-12T20:02:56.930Z,6.00
2023-01-12T20:05:25.448Z,6.00
2023-01-12T20:07:55.042Z,6.00
2023-01-12T20:10:24.278Z,6.00
2023-01-12T20:12:52.660Z,6.00
2023-01-12T20:15:22.519Z,6.00
2023-01-12T20:17:51.442Z,6.00
2023-01-12T20:20:20.234Z,6.00
2023-01-12T20:22:51.422Z,6.00
2023-01-12T20:25:20.451Z,6.00
2023-01-12T20:27:50.335Z,6.00
2023-01-12T20:30:31.911Z,6.00
2023-01-12T20:33:07.797Z,6.00
2023-01-12T20:35:38.585Z,6.00
2023-01-12T20:38:13.360Z,5.90
2023-01-12T20:40:41.832Z,5.90
2023-01-12T20:43:10.103Z,5.80
2023-01-12T20:45:38.643Z,5.80
2023-01-12T20:48:08.399Z,5.70
2023-01-12T20:50:36.892Z,5.70
2023-01-12T20:53:05.545Z,5.70
2023-01-12T20:55:34.064Z,5.70
2023-01-12T20:58:02.353Z,5.70
2023-01-12T21:00:32.228Z,5.70
2023-01-12T21:03:00.505Z,5.70
2023-01-12T21:05:30.237Z,5.70
2023-01-12T21:08:07.360Z,5.70
2023-01-12T21:10:36.659Z,5.60
2023-01-12T21:13:05.729Z,5.60
2023-01-12T21:15:34.314Z,5.60
2023-01-12T21:18:02.598Z,5.60
2023-01-12T21:20:32.631Z,5.60
2023-01-12T21:23:00.923Z,5.60
2023-01-12T21:25:29.398Z,5.60
2023-01-12T21:27:57.634Z,5.60
2023-01-12T21:30:25.968Z,5.70
2023-01-12T21:32:55.104Z,5.70
2023-01-12T21:35:24.122Z,5.70
2023-01-12T21:37:53.815Z,5.70
2023-01-12T21:40:22.097Z,5.70
2023-01-12T21:43:07.879Z,5.70
2023-01-12T21:45:37.316Z,5.70
2023-01-12T21:48:06.297Z,5.70
2023-01-12T21:50:35.405Z,5.60
2023-01-12T21:53:06.385Z,5.50
2023-01-12T21:55:36.139Z,5.50
2023-01-12T21:58:04.614Z,5.50
2023-01-12T22:00:33.153Z,5.50
2023-01-12T22:03:01.598Z,5.40
2023-01-12T22:05:30.058Z,5.40
2023-01-12T22:07:59.426Z,5.40
2023-01-12T22:10:31.529Z,5.30
2023-01-12T22:13:02.958Z,5.20
2023-01-12T22:15:31.663Z,5.10
2023-01-12T22:18:00.483Z,5.20
2023-01-12T22:20:28.912Z,5.20
2023-01-12T22:22:57.172Z,5.20
2023-01-12T22:25:25.491Z,5.10
2023-01-12T22:27:55.948Z,5.20
2023-01-12T22:30:25.566Z,5.10
2023-01-12T22:32:55.999Z,5.10
2023-01-12T22:35:26.485Z,5.20
2023-01-12T22:37:55.902Z,5.20
2023-01-12T22:40:24.234Z,5.10
2023-01-12T22:43:09.915Z,5.20
2023-01-12T22:45:40.664Z,5.10
2023-01-12T22:48:09.099Z,5.10
2023-01-12T22:50:38.459Z,5.20
2023-01-12T22:53:06.746Z,5.30
2023-01-12T22:55:35.069Z,5.40
2023-01-12T22:58:03.692Z,5.50
2023-01-12T23:00:31.946Z,5.50
2023-01-12T23:03:02.381Z,5.40
2023-01-12T23:05:33.536Z,5.40
2023-01-12T23:08:01.907Z,5.40
2023-01-12T23:10:30.643Z,5.40
2023-01-12T23:13:15.758Z,5.40
2023-01-12T23:15:46.305Z,5.40
2023-01-12T23:18:17.728Z,5.50
2023-01-12T23:20:46.915Z,5.40
2023-01-12T23:23:17.797Z,5.40
2023-01-12T23:25:46.761Z,5.40
2023-01-12T23:28:16.133Z,5.40
2023-01-12T23:30:45.043Z,5.50
2023-01-12T23:33:13.319Z,5.60
2023-01-12T23:35:44.049Z,5.60
2023-01-12T23:38:16.487Z,5.60
2023-01-12T23:40:44.835Z,5.60
2023-01-12T23:43:13.162Z,5.60
2023-01-12T23:45:41.558Z,5.60
2023-01-12T23:48:09.793Z,5.60
2023-01-12T23:50:38.023Z,5.60
2023-01-12T23:53:07.723Z,5.60
2023-01-12T23:55:39.387Z,5.60
2023-01-12T23:58:08.258Z,5.70
